createdAt,value
2018-06-03T00:00:17.092Z,0.00
2018-06-03T00:01:17.025Z,0.00
2018-06-03T00:02:16.955Z,0.00
2018-06-03T00:03:16.884Z,0.00
2018-06-03T00:04:16.817Z,0.00
2018-06-03T00:05:37.728Z,0.00
2018-06-03T00:06:16.671Z,0.00
2018-06-03T00:07:16.609Z,0.00
2018-06-03T00:08:16.528Z,0.00
2018-06-03T00:09:16.453Z,0.00
2018-06-03T00:10:16.388Z,0.00
2018-06-03T00:11:37.302Z,0.00
2018-06-03T00:12:16.240Z,0.00
2018-06-03T00:13:16.180Z,0.00
2018-06-03T00:14:16.107Z,0.00
2018-06-03T00:15:16.045Z,0.00
2018-06-03T00:16:15.995Z,0.00
2018-06-03T00:17:36.872Z,0.00
2018-06-03T00:18:15.823Z,0.00
2018-06-03T00:19:15.750Z,0.00
2018-06-03T00:20:15.677Z,0.00
2018-06-03T00:21:15.613Z,0.00
2018-06-03T00:22:15.540Z,0.00
2018-06-03T00:23:36.454Z,0.00
2018-06-03T00:24:15.391Z,0.00
2018-06-03T00:25:15.327Z,0.00
2018-06-03T00:26:15.302Z,0.00
2018-06-03T00:27:15.186Z,0.00
2018-06-03T00:28:15.119Z,0.00
2018-06-03T00:29:36.034Z,0.00
2018-06-03T00:30:14.973Z,0.00
2018-06-03T00:31:14.898Z,0.00
2018-06-03T00:32:14.840Z,0.00
2018-06-03T00:33:14.756Z,0.00
2018-06-03T00:34:14.696Z,0.00
2018-06-03T00:35:35.601Z,0.00
2018-06-03T00:36:14.555Z,0.00
2018-06-03T00:37:14.480Z,0.00
2018-06-03T00:38:14.401Z,0.00
2018-06-03T00:39:14.348Z,0.00
2018-06-03T00:40:14.277Z,0.00
2018-06-03T00:41:35.194Z,0.00
2018-06-03T00:42:14.119Z,0.00
2018-06-03T00:43:14.056Z,0.00
2018-06-03T00:44:13.985Z,0.00
2018-06-03T00:45:13.911Z,0.00
2018-06-03T00:46:13.834Z,0.00
2018-06-03T00:47:34.790Z,0.00
2018-06-03T00:48:13.702Z,0.00
2018-06-03T00:49:13.623Z,0.00
2018-06-03T00:50:13.560Z,0.00
2018-06-03T00:51:13.485Z,0.00
2018-06-03T00:52:13.410Z,0.00
2018-06-03T00:53:34.324Z,0.00
2018-06-03T00:54:13.267Z,0.00
2018-06-03T00:55:13.199Z,0.00
2018-06-03T00:56:13.129Z,0.00
2018-06-03T00:57:13.057Z,0.00
2018-06-03T00:58:12.983Z,0.00
2018-06-03T00:59:33.900Z,0.00
2018-06-03T01:00:12.844Z,0.00
2018-06-03T01:01:12.775Z,0.00
2018-06-03T01:02:12.720Z,0.00
2018-06-03T01:03:12.639Z,0.00
2018-06-03T01:04:12.564Z,0.00
2018-06-03T01:05:33.479Z,0.00
2018-06-03T01:06:12.417Z,0.00
2018-06-03T01:07:12.347Z,0.00
2018-06-03T01:08:12.287Z,0.00
2018-06-03T01:09:12.205Z,0.00
2018-06-03T01:10:12.139Z,0.00
2018-06-03T01:11:33.050Z,0.00
2018-06-03T01:12:11.997Z,0.00
2018-06-03T01:13:11.928Z,0.00
2018-06-03T01:14:11.849Z,0.00
2018-06-03T01:15:11.777Z,0.00
2018-06-03T01:16:11.717Z,0.00
2018-06-03T01:17:32.621Z,0.00
2018-06-03T01:18:11.565Z,0.00
2018-06-03T01:19:11.491Z,0.00
2018-06-03T01:20:11.440Z,0.00
2018-06-03T01:21:11.358Z,0.00
2018-06-03T01:22:11.288Z,0.00
2018-06-03T01:23:32.206Z,0.00
2018-06-03T01:24:11.141Z,0.00
2018-06-03T01:25:11.081Z,0.00
2018-06-03T01:26:11.000Z,0.00
2018-06-03T01:27:10.929Z,0.00
2018-06-03T01:28:10.856Z,0.00
2018-06-03T01:29:31.769Z,0.00
2018-06-03T01:30:10.735Z,0.00
2018-06-03T01:31:10.641Z,0.00
2018-06-03T01:32:10.575Z,0.00
2018-06-03T01:33:10.501Z,0.00
2018-06-03T01:34:10.432Z,0.00
2018-06-03T01:35:31.351Z,0.00
2018-06-03T01:36:10.315Z,0.00
2018-06-03T01:37:10.220Z,0.00
2018-06-03T01:38:10.152Z,0.00
2018-06-03T01:39:10.084Z,0.00
2018-06-03T01:40:10.017Z,0.00
2018-06-03T01:41:30.914Z,0.00
2018-06-03T01:42:09.877Z,0.00
2018-06-03T01:43:09.795Z,0.00
2018-06-03T01:44:09.719Z,0.00
2018-06-03T01:45:09.654Z,0.00
2018-06-03T01:46:09.589Z,0.00
2018-06-03T01:47:30.522Z,0.00
2018-06-03T01:48:09.436Z,0.00
2018-06-03T01:49:09.364Z,0.00
2018-06-03T01:50:09.293Z,0.00
2018-06-03T01:51:09.223Z,0.00
2018-06-03T01:52:09.157Z,0.00
2018-06-03T01:53:30.072Z,0.00
2018-06-03T01:54:09.013Z,0.00
2018-06-03T01:55:08.947Z,0.00
2018-06-03T01:56:08.875Z,0.00
2018-06-03T01:57:08.794Z,0.00
2018-06-03T01:58:08.735Z,0.00
2018-06-03T01:59:29.641Z,0.00
2018-06-03T02:00:08.583Z,0.00
2018-06-03T02:01:08.512Z,0.00
2018-06-03T02:02:08.453Z,0.00
2018-06-03T02:03:08.379Z,0.00
2018-06-03T02:04:08.308Z,0.00
2018-06-03T02:05:29.214Z,0.00
2018-06-03T02:06:08.162Z,0.00
2018-06-03T02:07:08.093Z,0.00
2018-06-03T02:08:08.026Z,0.00
2018-06-03T02:09:07.943Z,0.00
2018-06-03T02:10:07.879Z,0.00
2018-06-03T02:11:28.792Z,0.00
2018-06-03T02:12:07.736Z,0.00
2018-06-03T02:13:07.668Z,0.00
2018-06-03T02:14:07.593Z,0.00
2018-06-03T02:15:07.522Z,0.00
2018-06-03T02:16:07.450Z,0.00
2018-06-03T02:17:28.367Z,0.00
2018-06-03T02:18:07.310Z,0.00
2018-06-03T02:19:07.236Z,0.00
2018-06-03T02:20:07.170Z,0.00
2018-06-03T02:21:07.091Z,0.00
2018-06-03T02:22:07.019Z,0.00
2018-06-03T02:23:27.943Z,0.00
2018-06-03T02:24:06.879Z,0.00
2018-06-03T02:25:06.821Z,0.00
2018-06-03T02:26:06.738Z,0.00
2018-06-03T02:27:06.669Z,0.00
2018-06-03T02:28:06.604Z,0.00
2018-06-03T02:29:27.517Z,0.00
2018-06-03T02:30:06.455Z,0.00
2018-06-03T02:31:06.397Z,0.00
2018-06-03T02:32:06.321Z,0.00
2018-06-03T02:33:06.242Z,0.00
2018-06-03T02:34:06.169Z,0.00
2018-06-03T02:35:27.094Z,0.00
2018-06-03T02:36:06.040Z,0.00
2018-06-03T02:37:05.965Z,0.00
2018-06-03T02:38:05.922Z,0.00
2018-06-03T02:39:05.817Z,0.00
2018-06-03T02:40:05.755Z,0.00
2018-06-03T02:41:26.681Z,0.00
2018-06-03T02:42:05.607Z,0.00
2018-06-03T02:43:05.539Z,0.00
2018-06-03T02:44:05.479Z,0.00
2018-06-03T02:45:05.400Z,0.00
2018-06-03T02:46:05.323Z,0.00
2018-06-03T02:47:26.240Z,0.00
2018-06-03T02:48:05.182Z,0.00
2018-06-03T02:49:05.110Z,0.00
2018-06-03T02:50:05.037Z,0.00
2018-06-03T02:51:04.967Z,4.00
2018-06-03T02:52:04.897Z,4.00
2018-06-03T02:53:25.813Z,4.00
2018-06-03T02:54:04.751Z,0.00
2018-06-03T02:55:04.683Z,0.00
2018-06-03T02:56:04.623Z,4.00
2018-06-03T02:57:04.553Z,4.00
2018-06-03T02:58:04.472Z,4.00
2018-06-03T02:59:25.384Z,4.00
2018-06-03T03:00:04.331Z,4.00
2018-06-03T03:01:04.258Z,8.00
2018-06-03T03:02:04.221Z,4.00
2018-06-03T03:03:04.124Z,4.00
2018-06-03T03:04:04.050Z,8.00
2018-06-03T03:05:24.958Z,8.00
2018-06-03T03:06:03.909Z,8.00
2018-06-03T03:07:03.852Z,8.00
2018-06-03T03:08:03.764Z,12.00
2018-06-03T03:09:03.694Z,12.00
2018-06-03T03:10:03.623Z,12.00
2018-06-03T03:11:24.555Z,16.00
2018-06-03T03:12:03.479Z,20.00
2018-06-03T03:13:03.416Z,20.00
2018-06-03T03:14:03.346Z,24.00
2018-06-03T03:15:03.261Z,24.00
2018-06-03T03:16:03.196Z,28.00
2018-06-03T03:17:24.115Z,32.00
2018-06-03T03:18:03.058Z,32.00
2018-06-03T03:19:03.063Z,36.00
2018-06-03T03:20:02.918Z,44.00
2018-06-03T03:21:02.846Z,44.00
2018-06-03T03:22:02.768Z,48.00
2018-06-03T03:23:23.686Z,52.00
2018-06-03T03:24:02.627Z,56.00
2018-06-03T03:25:02.552Z,60.00
2018-06-03T03:26:02.491Z,64.00
2018-06-03T03:27:02.417Z,68.00
2018-06-03T03:28:02.343Z,72.00
2018-06-03T03:29:23.275Z,80.00
2018-06-03T03:30:02.204Z,88.00
2018-06-03T03:31:02.146Z,92.00
2018-06-03T03:32:02.076Z,100.00
2018-06-03T03:33:01.991Z,104.00
2018-06-03T03:34:01.915Z,112.00
2018-06-03T03:35:22.836Z,116.00
2018-06-03T03:36:01.788Z,124.00
2018-06-03T03:37:01.704Z,136.00
2018-06-03T03:38:01.629Z,144.00
2018-06-03T03:39:01.566Z,152.00
2018-06-03T03:40:01.494Z,164.00
2018-06-03T03:41:22.404Z,176.00
2018-06-03T03:42:01.378Z,188.00
2018-06-03T03:43:01.281Z,200.00
2018-06-03T03:44:01.233Z,212.00
2018-06-03T03:45:01.133Z,228.00
2018-06-03T03:46:01.065Z,240.00
2018-06-03T03:47:21.979Z,260.00
2018-06-03T03:48:00.931Z,272.00
2018-06-03T03:49:00.853Z,284.00
2018-06-03T03:50:00.783Z,300.00
2018-06-03T03:51:00.703Z,312.00
2018-06-03T03:52:00.652Z,320.00
2018-06-03T03:53:21.557Z,336.00
2018-06-03T03:54:00.512Z,348.00
2018-06-03T03:55:00.429Z,360.00
2018-06-03T03:56:00.368Z,376.00
2018-06-03T03:57:00.283Z,396.00
2018-06-03T03:58:00.234Z,408.00
2018-06-03T03:59:21.128Z,424.00
2018-06-03T04:00:00.074Z,440.00
2018-06-03T04:01:00.002Z,464.00
2018-06-03T04:01:59.956Z,488.00
2018-06-03T04:02:59.864Z,508.00
2018-06-03T04:03:59.806Z,528.00
2018-06-03T04:05:20.712Z,548.00
2018-06-03T04:05:59.644Z,568.00
2018-06-03T04:06:59.567Z,592.00
2018-06-03T04:07:59.513Z,612.00
2018-06-03T04:08:59.427Z,624.00
2018-06-03T04:09:59.372Z,648.00
2018-06-03T04:11:20.273Z,660.00
2018-06-03T04:11:59.219Z,672.00
2018-06-03T04:12:59.151Z,692.00
2018-06-03T04:13:59.086Z,716.00
2018-06-03T04:14:59.015Z,744.00
2018-06-03T04:15:58.931Z,776.00
2018-06-03T04:17:19.843Z,808.00
2018-06-03T04:17:58.792Z,848.00
2018-06-03T04:18:58.715Z,888.00
2018-06-03T04:19:58.652Z,912.00
2018-06-03T04:20:58.576Z,928.00
2018-06-03T04:21:58.506Z,944.00
2018-06-03T04:23:19.486Z,956.00
2018-06-03T04:23:58.368Z,972.00
2018-06-03T04:24:58.290Z,1004.00
2018-06-03T04:25:58.214Z,1032.00
2018-06-03T04:26:58.149Z,1040.00
2018-06-03T04:27:58.089Z,1040.00
2018-06-03T04:29:18.994Z,1032.00
2018-06-03T04:29:57.940Z,1036.00
2018-06-03T04:30:57.862Z,1068.00
2018-06-03T04:31:57.789Z,1104.00
2018-06-03T04:32:57.723Z,1136.00
2018-06-03T04:33:57.649Z,1144.00
2018-06-03T04:35:18.567Z,1144.00
2018-06-03T04:35:57.511Z,1144.00
2018-06-03T04:36:57.434Z,1144.00
2018-06-03T04:37:57.368Z,1148.00
2018-06-03T04:38:57.289Z,1160.00
2018-06-03T04:39:57.218Z,1172.00
2018-06-03T04:41:18.159Z,1196.00
2018-06-03T04:41:57.071Z,1220.00
2018-06-03T04:42:57.011Z,1232.00
2018-06-03T04:43:56.946Z,1244.00
2018-06-03T04:44:56.860Z,1240.00
2018-06-03T04:45:56.788Z,1244.00
2018-06-03T04:47:17.711Z,1256.00
2018-06-03T04:47:56.653Z,1276.00
2018-06-03T04:48:56.575Z,1300.00
2018-06-03T04:49:56.517Z,1324.00
2018-06-03T04:50:56.433Z,1344.00
2018-06-03T04:51:56.366Z,1364.00
2018-06-03T04:53:17.285Z,1372.00
2018-06-03T04:53:56.226Z,1372.00
2018-06-03T04:54:56.154Z,1360.00
2018-06-03T04:55:56.080Z,1356.00
2018-06-03T04:56:56.006Z,1340.00
2018-06-03T04:57:55.945Z,1344.00
2018-06-03T04:59:16.847Z,1348.00
2018-06-03T04:59:55.808Z,1364.00
2018-06-03T05:00:55.731Z,1376.00
2018-06-03T05:01:55.704Z,1388.00
2018-06-03T05:02:55.589Z,1396.00
2018-06-03T05:03:55.560Z,1392.00
2018-06-03T05:05:16.432Z,1388.00
2018-06-03T05:05:55.363Z,1384.00
2018-06-03T05:06:55.335Z,1380.00
2018-06-03T05:07:55.226Z,1384.00
2018-06-03T05:08:55.154Z,1388.00
2018-06-03T05:09:55.146Z,1396.00
2018-06-03T05:11:15.996Z,1404.00
2018-06-03T05:11:54.936Z,1416.00
2018-06-03T05:12:54.865Z,1416.00
2018-06-03T05:13:54.799Z,1416.00
2018-06-03T05:14:54.722Z,1416.00
2018-06-03T05:15:54.652Z,1432.00
2018-06-03T05:17:15.571Z,1440.00
2018-06-03T05:17:54.513Z,1456.00
2018-06-03T05:18:54.437Z,1476.00
2018-06-03T05:19:54.371Z,1492.00
2018-06-03T05:20:54.301Z,1516.00
2018-06-03T05:21:54.308Z,1524.00
2018-06-03T05:23:15.152Z,1528.00
2018-06-03T05:23:54.087Z,1552.00
2018-06-03T05:24:54.012Z,1564.00
2018-06-03T05:25:53.939Z,1580.00
2018-06-03T05:26:53.877Z,1588.00
2018-06-03T05:27:53.799Z,1600.00
2018-06-03T05:29:14.712Z,1608.00
2018-06-03T05:29:53.658Z,1628.00
2018-06-03T05:30:53.588Z,1640.00
2018-06-03T05:31:53.513Z,1656.00
2018-06-03T05:32:53.440Z,1676.00
2018-06-03T05:33:53.375Z,1692.00
2018-06-03T05:35:14.286Z,1708.00
2018-06-03T05:35:53.232Z,1728.00
2018-06-03T05:36:53.166Z,1744.00
2018-06-03T05:37:53.102Z,1764.00
2018-06-03T05:38:53.022Z,1780.00
2018-06-03T05:39:52.951Z,1796.00
2018-06-03T05:41:13.858Z,1808.00
2018-06-03T05:41:52.802Z,1820.00
2018-06-03T05:42:52.734Z,1828.00
2018-06-03T05:43:52.663Z,1844.00
2018-06-03T05:44:52.589Z,1864.00
2018-06-03T05:45:52.530Z,1876.00
2018-06-03T05:47:13.437Z,1900.00
2018-06-03T05:47:52.380Z,1924.00
2018-06-03T05:48:52.301Z,1948.00
2018-06-03T05:49:52.248Z,1980.00
2018-06-03T05:50:52.166Z,2004.00
2018-06-03T05:51:52.093Z,2036.00
2018-06-03T05:53:13.017Z,2052.00
2018-06-03T05:53:51.950Z,2076.00
2018-06-03T05:54:51.884Z,2104.00
2018-06-03T05:55:51.817Z,2136.00
2018-06-03T05:56:51.747Z,2160.00
2018-06-03T05:57:51.672Z,2192.00
2018-06-03T05:59:12.587Z,2216.00
2018-06-03T05:59:51.532Z,2216.00
2018-06-03T06:00:51.458Z,2208.00
2018-06-03T06:01:51.388Z,2208.00
2018-06-03T06:02:51.316Z,2200.00
2018-06-03T06:03:51.245Z,2200.00
2018-06-03T06:05:12.158Z,2200.00
2018-06-03T06:05:51.115Z,2212.00
2018-06-03T06:06:51.029Z,2224.00
2018-06-03T06:07:50.965Z,2236.00
2018-06-03T06:08:50.892Z,2252.00
2018-06-03T06:09:50.824Z,2252.00
2018-06-03T06:11:11.742Z,2248.00
2018-06-03T06:11:50.686Z,2240.00
2018-06-03T06:12:50.618Z,2240.00
2018-06-03T06:13:50.558Z,2244.00
2018-06-03T06:14:50.466Z,2244.00
2018-06-03T06:15:50.396Z,2236.00
2018-06-03T06:17:11.319Z,2232.00
2018-06-03T06:17:50.255Z,2236.00
2018-06-03T06:18:50.190Z,2248.00
2018-06-03T06:19:50.118Z,2260.00
2018-06-03T06:20:50.039Z,2268.00
2018-06-03T06:21:49.981Z,2268.00
2018-06-03T06:23:10.892Z,2268.00
2018-06-03T06:23:49.837Z,2264.00
2018-06-03T06:24:49.764Z,2272.00
2018-06-03T06:25:49.698Z,2276.00
2018-06-03T06:26:49.626Z,2280.00
2018-06-03T06:27:49.555Z,2288.00
2018-06-03T06:29:10.467Z,2288.00
2018-06-03T06:29:49.413Z,2288.00
2018-06-03T06:30:49.339Z,2292.00
2018-06-03T06:31:49.273Z,2296.00
2018-06-03T06:32:49.201Z,2304.00
2018-06-03T06:33:49.130Z,2320.00
2018-06-03T06:35:10.043Z,2332.00
2018-06-03T06:35:48.998Z,2340.00
2018-06-03T06:36:48.918Z,2348.00
2018-06-03T06:37:48.858Z,2364.00
2018-06-03T06:38:48.777Z,2388.00
2018-06-03T06:39:48.711Z,2404.00
2018-06-03T06:41:09.629Z,2428.00
2018-06-03T06:41:48.573Z,2452.00
2018-06-03T06:42:48.506Z,2492.00
2018-06-03T06:43:48.430Z,2520.00
2018-06-03T06:44:48.361Z,2556.00
2018-06-03T06:45:48.295Z,2604.00
2018-06-03T06:47:09.211Z,2628.00
2018-06-03T06:47:48.151Z,2652.00
2018-06-03T06:48:48.076Z,2668.00
2018-06-03T06:49:48.021Z,2680.00
2018-06-03T06:50:47.983Z,2700.00
2018-06-03T06:51:47.871Z,2708.00
2018-06-03T06:53:08.795Z,2732.00
2018-06-03T06:53:47.751Z,2760.00
2018-06-03T06:54:47.664Z,2784.00
2018-06-03T06:55:47.598Z,2792.00
2018-06-03T06:56:47.525Z,2808.00
2018-06-03T06:57:47.458Z,2824.00
2018-06-03T06:59:08.380Z,2820.00
2018-06-03T06:59:47.317Z,2828.00
2018-06-03T07:00:47.269Z,2844.00
2018-06-03T07:01:47.178Z,2860.00
2018-06-03T07:02:47.111Z,2896.00
2018-06-03T07:03:47.042Z,2952.00
2018-06-03T07:05:07.955Z,2948.00
2018-06-03T07:05:46.905Z,2948.00
2018-06-03T07:06:46.861Z,2960.00
2018-06-03T07:07:46.761Z,2964.00
2018-06-03T07:08:46.693Z,2972.00
2018-06-03T07:09:46.629Z,2960.00
2018-06-03T07:11:07.544Z,2964.00
2018-06-03T07:11:46.485Z,2968.00
2018-06-03T07:12:46.418Z,2956.00
2018-06-03T07:13:46.386Z,2952.00
2018-06-03T07:14:46.280Z,2976.00
2018-06-03T07:15:46.217Z,3004.00
2018-06-03T07:17:07.121Z,3064.00
2018-06-03T07:17:46.068Z,3168.00
2018-06-03T07:18:45.994Z,3228.00
2018-06-03T07:19:45.938Z,3272.00
2018-06-03T07:20:45.911Z,3296.00
2018-06-03T07:21:45.801Z,3328.00
2018-06-03T07:23:06.735Z,3320.00
2018-06-03T07:23:45.657Z,3352.00
2018-06-03T07:24:45.598Z,3380.00
2018-06-03T07:25:45.528Z,3416.00
2018-06-03T07:26:45.445Z,3396.00
2018-06-03T07:27:45.378Z,3412.00
2018-06-03T07:29:06.302Z,3440.00
2018-06-03T07:29:45.253Z,3480.00
2018-06-03T07:30:45.169Z,3532.00
2018-06-03T07:31:45.100Z,3548.00
2018-06-03T07:32:45.033Z,3556.00
2018-06-03T07:33:44.965Z,3600.00
2018-06-03T07:35:05.898Z,3628.00
2018-06-03T07:35:44.824Z,3652.00
2018-06-03T07:36:44.757Z,3684.00
2018-06-03T07:37:44.684Z,3692.00
2018-06-03T07:38:44.617Z,3712.00
2018-06-03T07:39:44.558Z,3712.00
2018-06-03T07:41:05.524Z,3732.00
2018-06-03T07:41:44.432Z,3756.00
2018-06-03T07:42:44.341Z,3792.00
2018-06-03T07:43:44.280Z,3824.00
2018-06-03T07:44:44.222Z,3792.00
2018-06-03T07:45:44.135Z,3800.00
2018-06-03T07:47:05.092Z,3824.00
2018-06-03T07:47:44.002Z,3884.00
2018-06-03T07:48:43.935Z,3944.00
2018-06-03T07:49:43.874Z,3988.00
2018-06-03T07:50:43.816Z,4012.00
2018-06-03T07:51:43.728Z,4052.00
2018-06-03T07:53:04.648Z,4048.00
2018-06-03T07:53:43.597Z,4072.00
2018-06-03T07:54:43.522Z,4108.00
2018-06-03T07:55:43.453Z,4128.00
2018-06-03T07:56:43.388Z,4180.00
2018-06-03T07:57:43.308Z,4196.00
2018-06-03T07:59:04.228Z,4224.00
2018-06-03T07:59:43.186Z,4240.00
2018-06-03T08:00:43.125Z,4260.00
2018-06-03T08:01:43.041Z,4324.00
2018-06-03T08:02:42.975Z,4728.00
2018-06-03T08:03:42.903Z,4504.00
2018-06-03T08:05:03.814Z,4456.00
2018-06-03T08:05:42.764Z,4452.00
2018-06-03T08:06:42.694Z,4668.00
2018-06-03T08:07:42.631Z,4748.00
2018-06-03T08:08:42.555Z,4716.00
2018-06-03T08:09:42.486Z,4768.00
2018-06-03T08:11:03.407Z,5076.00
2018-06-03T08:11:42.354Z,5612.00
2018-06-03T08:12:42.285Z,5936.00
2018-06-03T08:13:42.240Z,5248.00
2018-06-03T08:14:42.154Z,5544.00
2018-06-03T08:15:42.082Z,6208.00
2018-06-03T08:17:02.997Z,7100.00
2018-06-03T08:17:41.940Z,6628.00
2018-06-03T08:18:41.879Z,6292.00
2018-06-03T08:19:41.817Z,6320.00
2018-06-03T08:20:41.740Z,6472.00
2018-06-03T08:21:41.671Z,6812.00
2018-06-03T08:23:02.595Z,7188.00
2018-06-03T08:23:41.544Z,7084.00
2018-06-03T08:24:41.472Z,7144.00
2018-06-03T08:25:41.409Z,7804.00
2018-06-03T08:26:41.333Z,8048.00
2018-06-03T08:27:41.264Z,7888.00
2018-06-03T08:29:02.182Z,7980.00
2018-06-03T08:29:41.126Z,8196.00
2018-06-03T08:30:41.054Z,8132.00
2018-06-03T08:31:41.080Z,7920.00
2018-06-03T08:32:40.926Z,7980.00
2018-06-03T08:33:40.864Z,8404.00
2018-06-03T08:35:01.784Z,8748.00
2018-06-03T08:35:40.723Z,8780.00
2018-06-03T08:36:40.653Z,8664.00
2018-06-03T08:37:40.583Z,8788.00
2018-06-03T08:38:40.518Z,9364.00
2018-06-03T08:39:40.457Z,9488.00
2018-06-03T08:41:01.370Z,9380.00
2018-06-03T08:41:40.311Z,9148.00
2018-06-03T08:42:40.248Z,8760.00
2018-06-03T08:43:40.205Z,9160.00
2018-06-03T08:44:40.129Z,9740.00
2018-06-03T08:45:40.047Z,9816.00
2018-06-03T08:47:00.967Z,9028.00
2018-06-03T08:47:39.912Z,8700.00
2018-06-03T08:48:39.846Z,8372.00
2018-06-03T08:49:39.802Z,7448.00
2018-06-03T08:50:39.720Z,7480.00
2018-06-03T08:51:39.645Z,8072.00
2018-06-03T08:53:00.566Z,8860.00
2018-06-03T08:53:39.522Z,10572.00
2018-06-03T08:54:39.451Z,13988.00
2018-06-03T08:55:39.392Z,12368.00
2018-06-03T08:56:39.314Z,11200.00
2018-06-03T08:57:39.251Z,12488.00
2018-06-03T08:59:00.171Z,10428.00
2018-06-03T08:59:39.116Z,8648.00
2018-06-03T09:00:39.052Z,8920.00
2018-06-03T09:01:38.995Z,7728.00
2018-06-03T09:02:38.937Z,6148.00
2018-06-03T09:03:38.857Z,5712.00
2018-06-03T09:04:59.775Z,5392.00
2018-06-03T09:05:38.723Z,5292.00
2018-06-03T09:06:38.661Z,5224.00
2018-06-03T09:07:38.586Z,5036.00
2018-06-03T09:08:38.522Z,4884.00
2018-06-03T09:09:38.456Z,6216.00
2018-06-03T09:10:59.376Z,5184.00
2018-06-03T09:11:38.329Z,4876.00
2018-06-03T09:12:38.251Z,4672.00
2018-06-03T09:13:38.199Z,4504.00
2018-06-03T09:14:38.128Z,4248.00
2018-06-03T09:15:38.059Z,4052.00
2018-06-03T09:16:58.973Z,4032.00
2018-06-03T09:17:37.926Z,4048.00
2018-06-03T09:18:37.855Z,3988.00
2018-06-03T09:19:37.790Z,3884.00
2018-06-03T09:20:37.719Z,3848.00
2018-06-03T09:21:37.657Z,3840.00
2018-06-03T09:22:58.581Z,3756.00
2018-06-03T09:23:37.526Z,3660.00
2018-06-03T09:24:37.450Z,3412.00
2018-06-03T09:25:37.393Z,3444.00
2018-06-03T09:26:37.327Z,3608.00
2018-06-03T09:27:37.273Z,4016.00
2018-06-03T09:28:58.176Z,4688.00
2018-06-03T09:29:37.139Z,5828.00
2018-06-03T09:30:37.057Z,8012.00
2018-06-03T09:31:36.997Z,9140.00
2018-06-03T09:32:36.925Z,10224.00
2018-06-03T09:33:36.855Z,8456.00
2018-06-03T09:34:57.774Z,7896.00
2018-06-03T09:35:36.721Z,7388.00
2018-06-03T09:36:36.660Z,5856.00
2018-06-03T09:37:36.588Z,5240.00
2018-06-03T09:38:36.525Z,5028.00
2018-06-03T09:39:36.473Z,5172.00
2018-06-03T09:40:57.381Z,5536.00
2018-06-03T09:41:36.355Z,6016.00
2018-06-03T09:42:36.253Z,6544.00
2018-06-03T09:43:36.230Z,9208.00
2018-06-03T09:44:36.149Z,19104.00
2018-06-03T09:45:36.052Z,35264.00
2018-06-03T09:46:56.970Z,61120.00
2018-06-03T09:47:35.921Z,70304.00
2018-06-03T09:48:35.857Z,55584.00
2018-06-03T09:49:35.790Z,68064.00
2018-06-03T09:50:35.723Z,64224.00
2018-06-03T09:51:35.657Z,64896.00
2018-06-03T09:52:56.579Z,66560.00
2018-06-03T09:53:35.529Z,66912.00
2018-06-03T09:54:35.484Z,67584.00
2018-06-03T09:55:35.420Z,68704.00
2018-06-03T09:56:35.358Z,68320.00
2018-06-03T09:57:35.279Z,68896.00
2018-06-03T09:58:56.198Z,67328.00
2018-06-03T09:59:35.155Z,67936.00
2018-06-03T10:00:35.099Z,69248.00
2018-06-03T10:01:35.028Z,70016.00
2018-06-03T10:02:34.992Z,66720.00
2018-06-03T10:03:34.909Z,65728.00
2018-06-03T10:04:55.846Z,66400.00
2018-06-03T10:05:34.799Z,67552.00
2018-06-03T10:06:34.731Z,66432.00
2018-06-03T10:07:34.730Z,63648.00
2018-06-03T10:08:34.624Z,62112.00
2018-06-03T10:09:34.575Z,65312.00
2018-06-03T10:10:55.508Z,71456.00
2018-06-03T10:11:34.451Z,72608.00
2018-06-03T10:12:34.397Z,72192.00
2018-06-03T10:13:34.331Z,76448.00
2018-06-03T10:14:34.330Z,76576.00
2018-06-03T10:15:34.231Z,73600.00
2018-06-03T10:16:55.162Z,72992.00
2018-06-03T10:17:34.112Z,71936.00
2018-06-03T10:18:34.061Z,73600.00
2018-06-03T10:19:34.004Z,76768.00
2018-06-03T10:20:33.952Z,79136.00
2018-06-03T10:21:33.949Z,78528.00
2018-06-03T10:22:54.841Z,80608.00
2018-06-03T10:23:33.781Z,80224.00
2018-06-03T10:24:33.733Z,78784.00
2018-06-03T10:25:33.678Z,75520.00
2018-06-03T10:26:33.622Z,80992.00
2018-06-03T10:27:33.605Z,81728.00
2018-06-03T10:28:54.511Z,81024.00
2018-06-03T10:29:33.480Z,70592.00
2018-06-03T10:30:33.402Z,13432.00
2018-06-03T10:31:33.342Z,32224.00
2018-06-03T10:32:33.288Z,14056.00
2018-06-03T10:33:33.282Z,9720.00
2018-06-03T10:34:54.174Z,10432.00
2018-06-03T10:35:33.138Z,8704.00
2018-06-03T10:36:33.068Z,7400.00
2018-06-03T10:37:33.017Z,6944.00
2018-06-03T10:38:32.968Z,7648.00
2018-06-03T10:39:32.907Z,9068.00
2018-06-03T10:40:53.843Z,10140.00
2018-06-03T10:41:32.814Z,8668.00
2018-06-03T10:42:32.729Z,6920.00
2018-06-03T10:43:32.675Z,6260.00
2018-06-03T10:44:32.628Z,5692.00
2018-06-03T10:45:32.556Z,5424.00
2018-06-03T10:46:53.492Z,5380.00
2018-06-03T10:47:32.456Z,5312.00
2018-06-03T10:48:32.373Z,5172.00
2018-06-03T10:49:32.334Z,5012.00
2018-06-03T10:50:32.268Z,5172.00
2018-06-03T10:51:32.194Z,4924.00
2018-06-03T10:52:53.122Z,4896.00
2018-06-03T10:53:32.079Z,5128.00
2018-06-03T10:54:32.122Z,5820.00
2018-06-03T10:55:31.962Z,7524.00
2018-06-03T10:56:31.893Z,8520.00
2018-06-03T10:57:31.835Z,8608.00
2018-06-03T10:58:52.756Z,8924.00
2018-06-03T10:59:31.710Z,9408.00
2018-06-03T11:00:31.662Z,9016.00
2018-06-03T11:01:31.578Z,8672.00
2018-06-03T11:02:31.521Z,8884.00
2018-06-03T11:03:31.491Z,10856.00
2018-06-03T11:04:52.377Z,11336.00
2018-06-03T11:05:31.377Z,10824.00
2018-06-03T11:06:31.261Z,11104.00
2018-06-03T11:07:31.202Z,12356.00
2018-06-03T11:08:31.154Z,13152.00
2018-06-03T11:09:31.068Z,10212.00
2018-06-03T11:10:51.998Z,9220.00
2018-06-03T11:11:30.957Z,9836.00
2018-06-03T11:12:30.877Z,9600.00
2018-06-03T11:13:30.817Z,11408.00
2018-06-03T11:14:30.841Z,19360.00
2018-06-03T11:15:30.683Z,56128.00
2018-06-03T11:16:51.624Z,80192.00
2018-06-03T11:17:30.579Z,84064.00
2018-06-03T11:18:30.490Z,78880.00
2018-06-03T11:19:30.461Z,51232.00
2018-06-03T11:20:30.370Z,51264.00
2018-06-03T11:21:30.309Z,59328.00
2018-06-03T11:22:51.228Z,70624.00
2018-06-03T11:23:30.182Z,81312.00
2018-06-03T11:24:30.126Z,56480.00
2018-06-03T11:25:30.062Z,30528.00
2018-06-03T11:26:29.996Z,16268.00
2018-06-03T11:27:30.015Z,17568.00
2018-06-03T11:28:50.875Z,21888.00
2018-06-03T11:29:29.819Z,13128.00
2018-06-03T11:30:29.756Z,13492.00
2018-06-03T11:31:29.701Z,12800.00
2018-06-03T11:32:29.628Z,12556.00
2018-06-03T11:33:29.571Z,12260.00
2018-06-03T11:34:50.537Z,12132.00
2018-06-03T11:35:29.453Z,25760.00
2018-06-03T11:36:29.387Z,12940.00
2018-06-03T11:37:29.330Z,14116.00
2018-06-03T11:38:29.270Z,33088.00
2018-06-03T11:39:29.227Z,28768.00
2018-06-03T11:40:50.131Z,56384.00
2018-06-03T11:41:29.085Z,16448.00
2018-06-03T11:42:29.028Z,22368.00
2018-06-03T11:43:28.957Z,17056.00
2018-06-03T11:44:28.899Z,14220.00
2018-06-03T11:45:28.838Z,12832.00
2018-06-03T11:46:49.765Z,9536.00
2018-06-03T11:47:28.752Z,8464.00
2018-06-03T11:48:28.647Z,8240.00
2018-06-03T11:49:28.584Z,8336.00
2018-06-03T11:50:28.531Z,8080.00
2018-06-03T11:51:28.506Z,8508.00
2018-06-03T11:52:49.391Z,8884.00
2018-06-03T11:53:28.343Z,9392.00
2018-06-03T11:54:28.279Z,10296.00
2018-06-03T11:55:28.216Z,10576.00
2018-06-03T11:56:28.158Z,10664.00
2018-06-03T11:57:28.084Z,10908.00
2018-06-03T11:58:49.034Z,21216.00
2018-06-03T11:59:27.962Z,17088.00
2018-06-03T12:00:27.931Z,13924.00
2018-06-03T12:01:27.843Z,14356.00
2018-06-03T12:02:27.784Z,17312.00
2018-06-03T12:03:27.737Z,13676.00
2018-06-03T12:04:48.640Z,14000.00
2018-06-03T12:05:27.590Z,14452.00
2018-06-03T12:06:27.519Z,15516.00
2018-06-03T12:07:27.455Z,14252.00
2018-06-03T12:08:27.399Z,11952.00
2018-06-03T12:09:27.330Z,12744.00
2018-06-03T12:10:48.268Z,10484.00
2018-06-03T12:11:27.216Z,10136.00
2018-06-03T12:12:27.135Z,7968.00
2018-06-03T12:13:27.074Z,7260.00
2018-06-03T12:14:27.019Z,6916.00
2018-06-03T12:15:27.000Z,6428.00
2018-06-03T12:16:47.872Z,5992.00
2018-06-03T12:17:26.827Z,5512.00
2018-06-03T12:18:26.758Z,5024.00
2018-06-03T12:19:26.693Z,4588.00
2018-06-03T12:20:26.638Z,4344.00
2018-06-03T12:21:26.571Z,4176.00